Terminal Aerodrome Forecast
Issued by NWS Charleston, SC

Home | Current Version | Previous Version | Text Only | Print | Product List | Glossary On
Versions: 1 2 3 4 5 6 7 8 9 10 11 12
000
FTUS42 KCHS 191700
TAFCHS
TAF
KCHS 191731Z 1918/2018 VRB04KT P6SM SCT120 BKN200
     FM200900 03005KT P6SM -RA SCT025 BKN080
     FM201400 02007KT 6SM -RA BR SCT007 OVC015=

USA.gov is the U.S. government's official web portal to all federal, state and local government web resources and services.